createdAt,value
2022-09-26T00:01:25.842Z,10.91
2022-09-26T00:04:32.855Z,10.90
2022-09-26T00:07:35.610Z,10.82
2022-09-26T00:10:38.078Z,10.99
2022-09-26T00:13:42.879Z,11.13
2022-09-26T00:16:45.462Z,10.98
2022-09-26T00:19:49.341Z,11.04
2022-09-26T00:22:51.831Z,10.97
2022-09-26T00:25:54.311Z,11.15
2022-09-26T00:28:57.932Z,11.27
2022-09-26T00:32:00.394Z,11.28
2022-09-26T00:35:04.616Z,11.19
2022-09-26T00:38:07.932Z,11.24
2022-09-26T00:41:10.843Z,11.26
2022-09-26T00:44:41.782Z,11.21
2022-09-26T00:47:47.449Z,11.25
2022-09-26T00:50:52.638Z,10.87
2022-09-26T00:53:55.762Z,10.97
2022-09-26T00:57:04.013Z,10.90
2022-09-26T01:00:11.934Z,11.13
2022-09-26T01:03:16.576Z,11.00
2022-09-26T01:06:21.389Z,11.04
2022-09-26T01:09:23.947Z,11.12
2022-09-26T01:12:26.477Z,11.15
2022-09-26T01:15:29.131Z,11.11
2022-09-26T01:18:32.289Z,11.21
2022-09-26T01:22:02.900Z,11.25
2022-09-26T01:25:20.882Z,11.33
2022-09-26T01:28:37.564Z,11.04
2022-09-26T01:32:10.679Z,11.19
2022-09-26T01:35:19.183Z,11.18
2022-09-26T01:38:30.233Z,11.14
2022-09-26T01:41:44.042Z,11.06
2022-09-26T01:44:52.385Z,11.13
2022-09-26T01:48:04.646Z,10.97
2022-09-26T01:51:16.538Z,10.95
2022-09-26T01:54:24.136Z,10.99
2022-09-26T01:57:30.634Z,11.00
2022-09-26T02:00:35.585Z,11.02
2022-09-26T02:03:46.489Z,10.68
2022-09-26T02:06:53.836Z,10.93
2022-09-26T02:10:00.234Z,10.99
2022-09-26T02:13:09.031Z,10.94
2022-09-26T02:16:23.563Z,10.74
2022-09-26T02:19:30.553Z,10.98
2022-09-26T02:22:35.907Z,10.97
2022-09-26T02:25:38.510Z,11.04
2022-09-26T02:28:41.167Z,11.03
2022-09-26T02:31:49.590Z,11.07
2022-09-26T02:34:53.885Z,11.14
2022-09-26T02:37:56.374Z,10.76
2022-09-26T02:41:09.156Z,11.06
2022-09-26T02:44:33.438Z,11.18
2022-09-26T02:47:48.757Z,11.15
2022-09-26T02:51:08.735Z,10.97
2022-09-26T02:54:22.969Z,11.02
2022-09-26T02:57:36.190Z,10.90
2022-09-26T03:00:53.721Z,11.02
2022-09-26T03:04:03.318Z,11.12
2022-09-26T03:07:15.630Z,10.79
2022-09-26T03:10:20.061Z,10.89
2022-09-26T03:13:25.374Z,11.01
2022-09-26T03:16:32.624Z,11.08
2022-09-26T03:19:40.673Z,11.06
2022-09-26T03:22:45.897Z,10.94
2022-09-26T03:25:59.468Z,10.93
2022-09-26T03:29:02.332Z,11.14
2022-09-26T03:32:05.154Z,11.17
2022-09-26T03:35:08.338Z,11.01
2022-09-26T03:38:14.545Z,11.05
2022-09-26T03:41:17.242Z,11.12
2022-09-26T03:44:19.749Z,11.10
2022-09-26T03:47:22.228Z,11.22
2022-09-26T03:50:25.122Z,11.29
2022-09-26T03:53:28.945Z,11.06
2022-09-26T03:56:31.901Z,11.01
2022-09-26T03:59:34.411Z,11.21
2022-09-26T04:02:37.201Z,11.30
2022-09-26T04:05:40.138Z,11.29
2022-09-26T04:08:44.064Z,11.29
2022-09-26T04:11:46.777Z,11.31
2022-09-26T04:14:49.291Z,11.19
2022-09-26T04:17:51.777Z,11.29
2022-09-26T04:20:58.221Z,11.35
2022-09-26T04:24:02.936Z,11.20
2022-09-26T04:27:06.333Z,11.30
2022-09-26T04:30:11.741Z,11.30
2022-09-26T04:33:14.262Z,11.37
2022-09-26T04:36:17.998Z,11.45
2022-09-26T04:39:22.237Z,11.32
2022-09-26T04:42:25.125Z,11.05
2022-09-26T04:45:27.664Z,11.24
2022-09-26T04:48:30.162Z,11.29
2022-09-26T04:51:33.557Z,11.39
2022-09-26T04:54:38.391Z,11.43
2022-09-26T04:57:40.935Z,11.17
2022-09-26T05:00:47.327Z,11.26
2022-09-26T05:03:50.146Z,11.00
2022-09-26T05:06:57.770Z,11.30
2022-09-26T05:10:01.701Z,11.33
2022-09-26T05:13:04.306Z,11.43
2022-09-26T05:16:09.657Z,10.94
2022-09-26T05:19:12.201Z,11.31
2022-09-26T05:22:14.672Z,11.39
2022-09-26T05:25:36.140Z,11.43
2022-09-26T05:28:38.659Z,11.41
2022-09-26T05:31:41.371Z,11.40
2022-09-26T05:34:43.899Z,11.60
2022-09-26T05:37:46.345Z,11.25
2022-09-26T05:41:00.121Z,11.37
2022-09-26T05:44:02.864Z,11.46
2022-09-26T05:47:05.684Z,11.08
2022-09-26T05:50:10.832Z,11.24
2022-09-26T05:53:13.469Z,10.91
2022-09-26T05:56:19.658Z,11.02
2022-09-26T05:59:22.392Z,10.92
2022-09-26T06:02:25.015Z,10.66
2022-09-26T06:05:28.285Z,11.02
2022-09-26T06:08:30.944Z,10.79
2022-09-26T06:11:34.785Z,10.89
2022-09-26T06:14:37.271Z,10.90
2022-09-26T06:17:39.956Z,11.05
2022-09-26T06:20:42.421Z,11.28
2022-09-26T06:23:45.536Z,10.95
2022-09-26T06:26:49.424Z,10.74
2022-09-26T06:29:52.234Z,10.90
2022-09-26T06:32:55.248Z,11.08
2022-09-26T06:36:01.533Z,11.25
2022-09-26T06:39:04.074Z,11.19
2022-09-26T06:42:08.251Z,11.46
2022-09-26T06:45:12.068Z,11.07
2022-09-26T06:48:14.555Z,11.10
2022-09-26T06:51:17.041Z,11.35
2022-09-26T06:54:19.720Z,10.93
2022-09-26T06:57:23.852Z,10.89
2022-09-26T07:00:29.661Z,11.18
2022-09-26T07:03:32.158Z,11.19
2022-09-26T07:06:34.644Z,11.26
2022-09-26T07:09:37.145Z,11.47
2022-09-26T07:12:41.821Z,11.50
2022-09-26T07:15:46.131Z,11.60
2022-09-26T07:18:48.683Z,11.58
2022-09-26T07:21:51.193Z,11.31
2022-09-26T07:24:53.653Z,11.39
2022-09-26T07:27:57.625Z,11.19
2022-09-26T07:31:00.508Z,11.14
2022-09-26T07:34:04.009Z,11.41
2022-09-26T07:37:07.532Z,11.50
2022-09-26T07:40:10.750Z,11.28
2022-09-26T07:43:19.987Z,11.64
2022-09-26T07:46:41.442Z,11.53
2022-09-26T07:50:01.587Z,11.81
2022-09-26T07:53:04.114Z,11.55
2022-09-26T07:56:06.787Z,11.47
2022-09-26T07:59:10.591Z,11.79
2022-09-26T08:02:22.027Z,11.92
2022-09-26T08:05:25.471Z,11.86
2022-09-26T08:08:29.372Z,11.79
2022-09-26T08:11:31.927Z,11.98
2022-09-26T08:14:36.004Z,12.36
2022-09-26T08:17:39.167Z,12.40
2022-09-26T08:20:44.438Z,12.40
2022-09-26T08:23:47.429Z,12.54
2022-09-26T08:26:50.049Z,12.38
2022-09-26T08:29:54.138Z,12.77
2022-09-26T08:33:01.997Z,12.92
2022-09-26T08:36:06.418Z,13.13
2022-09-26T08:39:08.920Z,13.27
2022-09-26T08:42:31.050Z,12.96
2022-09-26T08:46:04.153Z,12.91
2022-09-26T08:49:30.056Z,13.01
2022-09-26T08:52:40.790Z,12.92
2022-09-26T08:55:45.580Z,13.27
2022-09-26T08:58:52.253Z,13.34
2022-09-26T09:02:00.497Z,13.16
2022-09-26T09:05:07.759Z,13.23
2022-09-26T09:08:15.195Z,13.49
2022-09-26T09:11:29.448Z,13.21
2022-09-26T09:15:23.654Z,13.10
2022-09-26T09:18:30.346Z,13.36
2022-09-26T09:21:42.312Z,13.14
2022-09-26T09:24:56.872Z,13.18
2022-09-26T09:28:14.577Z,13.37
2022-09-26T09:31:18.289Z,13.72
2022-09-26T09:34:26.280Z,13.54
2022-09-26T09:37:32.702Z,13.85
2022-09-26T09:40:39.388Z,14.24
2022-09-26T09:43:47.504Z,14.01
2022-09-26T09:46:51.356Z,13.97
2022-09-26T09:49:56.533Z,14.17
2022-09-26T09:53:11.330Z,13.68
2022-09-26T09:56:26.837Z,13.83
2022-09-26T09:59:49.225Z,13.72
2022-09-26T10:03:00.173Z,14.02
2022-09-26T10:06:07.790Z,13.87
2022-09-26T10:09:38.709Z,14.12
2022-09-26T10:12:43.563Z,13.63
2022-09-26T10:15:57.844Z,13.49
2022-09-26T10:19:07.355Z,13.58
2022-09-26T10:22:24.088Z,13.71
2022-09-26T10:25:26.638Z,13.98
2022-09-26T10:28:32.198Z,14.08
2022-09-26T10:31:41.979Z,14.06
2022-09-26T10:35:05.294Z,14.02
2022-09-26T10:38:21.128Z,13.88
2022-09-26T10:41:24.407Z,13.73
2022-09-26T10:44:28.934Z,13.90
2022-09-26T10:47:31.493Z,13.80
2022-09-26T10:50:34.030Z,13.82
2022-09-26T10:53:41.433Z,13.95
2022-09-26T10:56:47.749Z,13.95
2022-09-26T10:59:51.577Z,13.66
2022-09-26T11:02:54.117Z,13.71
2022-09-26T11:05:59.883Z,13.70
2022-09-26T11:09:05.365Z,13.80
2022-09-26T11:12:23.767Z,14.24
2022-09-26T11:15:28.713Z,14.42
2022-09-26T11:18:40.730Z,14.26
2022-09-26T11:21:48.282Z,14.38
2022-09-26T11:25:00.774Z,14.47
2022-09-26T11:28:07.296Z,14.48
2022-09-26T11:31:22.824Z,14.55
2022-09-26T11:34:29.116Z,14.17
2022-09-26T11:37:43.519Z,14.17
2022-09-26T11:41:07.931Z,14.05
2022-09-26T11:44:26.005Z,14.16
2022-09-26T11:47:51.779Z,13.93
2022-09-26T11:51:00.473Z,13.73
2022-09-26T11:54:18.108Z,13.44
2022-09-26T11:57:35.494Z,13.48
2022-09-26T12:00:51.636Z,13.52
2022-09-26T12:04:12.082Z,13.31
2022-09-26T12:07:20.508Z,13.29
2022-09-26T12:10:33.950Z,13.25
2022-09-26T12:13:52.133Z,13.28
2022-09-26T12:17:02.392Z,13.43
2022-09-26T12:20:21.234Z,13.18
2022-09-26T12:23:31.272Z,13.31
2022-09-26T12:26:40.596Z,13.42
2022-09-26T12:29:53.781Z,13.60
2022-09-26T12:33:08.139Z,13.73
2022-09-26T12:36:21.374Z,13.90
2022-09-26T12:39:40.638Z,13.94
2022-09-26T12:42:59.475Z,13.73
2022-09-26T12:46:27.829Z,13.66
2022-09-26T12:49:43.839Z,13.31
2022-09-26T12:53:10.155Z,13.38
2022-09-26T12:56:20.834Z,13.69
2022-09-26T12:59:38.797Z,13.51
2022-09-26T13:03:02.006Z,13.46
2022-09-26T13:06:57.027Z,13.81
2022-09-26T13:10:27.946Z,13.69
2022-09-26T13:14:12.277Z,13.54
2022-09-26T13:17:17.502Z,13.46
2022-09-26T13:20:28.023Z,13.35
2022-09-26T13:23:35.628Z,13.11
2022-09-26T13:26:43.696Z,13.17
2022-09-26T13:29:53.864Z,13.06
2022-09-26T13:33:03.656Z,13.16
2022-09-26T13:36:10.460Z,13.17
2022-09-26T13:39:18.684Z,13.18
2022-09-26T13:42:31.987Z,12.96
2022-09-26T13:45:46.366Z,13.39
2022-09-26T13:49:00.806Z,13.20
2022-09-26T13:52:19.634Z,13.17
2022-09-26T13:55:23.217Z,12.96
2022-09-26T13:58:39.959Z,12.99
2022-09-26T14:02:15.795Z,12.82
2022-09-26T14:05:46.974Z,12.96
2022-09-26T14:09:28.562Z,13.12
2022-09-26T14:12:52.335Z,12.91
2022-09-26T14:16:03.284Z,13.12
2022-09-26T14:19:10.104Z,12.90
2022-09-26T14:22:34.627Z,12.64
2022-09-26T14:25:56.722Z,13.04
2022-09-26T14:29:25.908Z,12.95
2022-09-26T14:32:32.784Z,12.91
2022-09-26T14:35:38.454Z,12.99
2022-09-26T14:38:41.650Z,12.98
2022-09-26T14:41:45.520Z,13.02
2022-09-26T14:45:00.049Z,12.88
2022-09-26T14:48:08.897Z,12.40
2022-09-26T14:51:25.690Z,12.16
2022-09-26T14:54:35.194Z,12.47
2022-09-26T14:57:39.247Z,12.38
2022-09-26T15:00:47.493Z,12.46
2022-09-26T15:03:54.683Z,12.48
2022-09-26T15:07:02.128Z,12.57
2022-09-26T15:10:09.758Z,12.70
2022-09-26T15:13:26.190Z,12.59
2022-09-26T15:16:34.564Z,12.56
2022-09-26T15:19:42.709Z,12.70
2022-09-26T15:22:45.527Z,12.80
2022-09-26T15:25:48.266Z,12.73
2022-09-26T15:28:54.011Z,12.70
2022-09-26T15:31:57.561Z,12.64
2022-09-26T15:35:02.437Z,12.80
2022-09-26T15:38:12.788Z,12.81
2022-09-26T15:41:37.294Z,12.65
2022-09-26T15:44:48.082Z,12.37
2022-09-26T15:47:50.766Z,12.40
2022-09-26T15:50:56.229Z,12.29
2022-09-26T15:54:04.159Z,12.39
2022-09-26T15:57:08.030Z,12.30
2022-09-26T16:00:14.746Z,12.48
2022-09-26T16:03:39.229Z,12.42
2022-09-26T16:06:43.717Z,12.33
2022-09-26T16:09:51.091Z,12.26
2022-09-26T16:12:54.111Z,12.31
2022-09-26T16:16:07.195Z,12.09
2022-09-26T16:19:30.133Z,12.02
2022-09-26T16:22:44.464Z,12.11
2022-09-26T16:25:56.272Z,12.07
2022-09-26T16:29:00.401Z,12.20
2022-09-26T16:32:05.701Z,12.07
2022-09-26T16:35:19.568Z,12.16
2022-09-26T16:38:27.929Z,12.07
2022-09-26T16:42:01.240Z,12.14
2022-09-26T16:44:57.504Z,12.17
2022-09-26T16:48:01.607Z,12.15
2022-09-26T16:51:19.117Z,12.43
2022-09-26T16:54:21.808Z,12.33
2022-09-26T16:57:26.979Z,12.09
2022-09-26T17:00:52.164Z,12.33
2022-09-26T17:03:57.884Z,12.31
2022-09-26T17:07:04.294Z,11.80
2022-09-26T17:10:09.845Z,11.82
2022-09-26T17:13:16.939Z,11.75
2022-09-26T17:16:20.464Z,11.91
2022-09-26T17:19:26.513Z,11.96
2022-09-26T17:22:29.605Z,11.98
2022-09-26T17:25:32.440Z,12.09
2022-09-26T17:28:39.638Z,11.68
2022-09-26T17:31:42.318Z,11.78
2022-09-26T17:34:46.362Z,11.82
2022-09-26T17:37:49.029Z,11.94
2022-09-26T17:40:51.775Z,11.93
2022-09-26T17:43:58.813Z,11.93
2022-09-26T17:47:02.142Z,11.92
2022-09-26T17:50:07.505Z,12.04
2022-09-26T17:53:20.489Z,12.08
2022-09-26T17:56:23.124Z,11.98
2022-09-26T17:59:28.584Z,11.98
2022-09-26T18:02:34.352Z,11.82
2022-09-26T18:05:39.591Z,11.74
2022-09-26T18:08:42.548Z,11.88
2022-09-26T18:11:52.267Z,11.96
2022-09-26T18:14:57.457Z,12.05
2022-09-26T18:18:01.384Z,11.71
2022-09-26T18:21:07.373Z,11.67
2022-09-26T18:24:19.841Z,12.00
2022-09-26T18:27:23.193Z,12.11
2022-09-26T18:30:25.970Z,11.99
2022-09-26T18:33:29.176Z,12.19
2022-09-26T18:36:33.915Z,11.96
2022-09-26T18:39:36.758Z,12.25
2022-09-26T18:42:39.606Z,12.31
2022-09-26T18:45:42.306Z,11.82
2022-09-26T18:48:46.301Z,12.12
2022-09-26T18:51:50.341Z,12.30
2022-09-26T18:55:13.128Z,12.29
2022-09-26T18:58:27.631Z,12.10
2022-09-26T19:01:33.152Z,12.07
2022-09-26T19:04:35.856Z,12.10
2022-09-26T19:07:40.393Z,12.08
2022-09-26T19:10:43.174Z,11.86
2022-09-26T19:13:47.423Z,12.11
2022-09-26T19:16:51.122Z,12.12
2022-09-26T19:19:53.726Z,12.04
2022-09-26T19:22:58.962Z,11.76
2022-09-26T19:26:02.070Z,11.95
2022-09-26T19:29:11.339Z,11.81
2022-09-26T19:32:20.502Z,11.73
2022-09-26T19:35:26.598Z,11.85
2022-09-26T19:38:30.610Z,11.96
2022-09-26T19:41:33.279Z,11.83
2022-09-26T19:44:35.945Z,11.75
2022-09-26T19:47:40.150Z,11.74
2022-09-26T19:50:44.968Z,11.77
2022-09-26T19:53:48.932Z,11.58
2022-09-26T19:56:51.508Z,11.35
2022-09-26T19:59:54.195Z,11.60
2022-09-26T20:02:56.920Z,11.83
2022-09-26T20:05:59.708Z,11.91
2022-09-26T20:09:05.253Z,11.72
2022-09-26T20:12:08.218Z,11.91
2022-09-26T20:15:13.079Z,11.97
2022-09-26T20:18:20.712Z,11.78
2022-09-26T20:21:27.758Z,11.83
2022-09-26T20:24:34.249Z,11.77
2022-09-26T20:27:37.204Z,11.70
2022-09-26T20:30:56.539Z,11.72
2022-09-26T20:33:59.897Z,11.71
2022-09-26T20:37:03.977Z,11.48
2022-09-26T20:40:15.828Z,11.66
2022-09-26T20:43:27.881Z,11.45
2022-09-26T20:46:34.556Z,11.60
2022-09-26T20:49:43.601Z,11.44
2022-09-26T20:52:46.289Z,11.42
2022-09-26T20:55:52.041Z,11.45
2022-09-26T20:58:54.708Z,11.48
2022-09-26T21:01:58.333Z,11.71
2022-09-26T21:05:01.845Z,11.61
2022-09-26T21:08:10.367Z,11.75
2022-09-26T21:11:15.333Z,11.30
2022-09-26T21:14:18.362Z,11.35
2022-09-26T21:17:24.053Z,11.62
2022-09-26T21:20:28.538Z,11.68
2022-09-26T21:23:31.973Z,11.54
2022-09-26T21:26:35.710Z,11.63
2022-09-26T21:29:38.161Z,11.53
2022-09-26T21:32:44.558Z,11.58
2022-09-26T21:35:46.966Z,11.65
2022-09-26T21:38:52.321Z,11.69
2022-09-26T21:41:59.463Z,11.75
2022-09-26T21:45:04.514Z,11.76
2022-09-26T21:48:07.597Z,11.71
2022-09-26T21:51:12.713Z,11.48
2022-09-26T21:54:20.240Z,11.48
2022-09-26T21:57:28.211Z,11.75
2022-09-26T22:00:30.865Z,11.44
2022-09-26T22:03:34.553Z,11.79
2022-09-26T22:06:37.131Z,11.63
2022-09-26T22:09:39.821Z,11.70
2022-09-26T22:12:44.190Z,11.47
2022-09-26T22:15:46.964Z,11.53
2022-09-26T22:18:49.637Z,11.81
2022-09-26T22:21:52.346Z,11.92
2022-09-26T22:24:54.989Z,11.83
2022-09-26T22:27:59.033Z,11.75
2022-09-26T22:31:02.784Z,11.86
2022-09-26T22:34:05.545Z,12.00
2022-09-26T22:37:08.209Z,11.70
2022-09-26T22:40:11.281Z,11.55
2022-09-26T22:43:15.291Z,11.66
2022-09-26T22:46:18.058Z,11.82
2022-09-26T22:49:20.821Z,11.86
2022-09-26T22:52:23.475Z,11.85
2022-09-26T22:55:26.263Z,11.53
2022-09-26T22:58:30.398Z,11.46
2022-09-26T23:01:33.269Z,11.59
2022-09-26T23:04:48.125Z,11.66
2022-09-26T23:07:54.595Z,11.72
2022-09-26T23:10:57.964Z,11.46
2022-09-26T23:14:02.006Z,11.36
2022-09-26T23:17:05.143Z,11.55
2022-09-26T23:20:08.805Z,11.77
2022-09-26T23:23:13.245Z,11.60
2022-09-26T23:26:21.295Z,11.41
2022-09-26T23:29:25.491Z,11.62
2022-09-26T23:32:28.218Z,11.32
2022-09-26T23:35:30.997Z,11.50
2022-09-26T23:38:33.884Z,11.67
2022-09-26T23:41:36.860Z,11.72
2022-09-26T23:44:40.895Z,11.54
2022-09-26T23:47:43.567Z,11.57
2022-09-26T23:50:47.498Z,11.47
2022-09-26T23:53:50.206Z,11.54
2022-09-26T23:56:52.849Z,11.67
2022-09-26T23:59:56.882Z,11.50
